Monday, December 10, 2018, 9:22 PM EST
Back to Local

KLCI, Laconia, Laconia Municipal Airport

Location: Laconia, NH, United States Lat: 43.567
Local Time: 9:22 PM EST ( 2:22 GMT) Lon: -71.417
Time Zone: US/Eastern Elev: 544 ft

Show me the last for .
Show Decoded

2018-12-10 20:56 METAR KLCI 110156Z AUTO VRB03KT 10SM CLR M08/M13 A3015 RMK AO2 SLP228 T10781128
                 FZRANO $ =
2018-12-10 19:56 METAR KLCI 110056Z AUTO 27010KT 10SM CLR M07/M13 A3014 RMK AO2 SLP226 T10721128
                 FZRANO $ =
2018-12-10 18:56 METAR KLCI 102356Z AUTO 25006KT 10SM CLR M07/M12 A3014 RMK AO2 SLP228 T10671122
                 11011 21067 51009 FZRANO $ =
2018-12-10 17:56 METAR KLCI 102256Z AUTO 22006KT 10SM CLR M06/M12 A3014 RMK AO2 SLP226 T10611117
                 FZRANO $ =
2018-12-10 16:56 METAR KLCI 102156Z AUTO 27006KT 10SM CLR M05/M12 A3013 RMK AO2 SLP221 T10501117
                 FZRANO $ =
2018-12-10 15:56 METAR KLCI 102056Z AUTO 27008KT 220V310 10SM CLR M03/M12 A3012 RMK AO2 SLP218
                 T10331117 53012 FZRANO $ =
2018-12-10 14:56 METAR KLCI 101956Z AUTO 31006KT 10SM CLR M02/M11 A3010 RMK AO2 SLP211 T10171111
                 FZRANO $ =
2018-12-10 13:56 METAR KLCI 101856Z AUTO 29011G17KT 10SM CLR M02/M11 A3009 RMK AO2 SLP209
                 T10171111 FZRANO $ =
2018-12-10 12:56 METAR KLCI 101756Z AUTO 29011G19KT 10SM CLR M02/M11 A3008 RMK AO2 SLP207
                 T10171111 10000 21044 57010 FZRANO $ =
2018-12-10 11:56 METAR KLCI 101656Z AUTO 31009G15KT 280V350 10SM CLR M01/M10 A3009 RMK AO2 SLP210
                 T10061100 FZRANO $ =
2018-12-10 10:56 METAR KLCI 101556Z AUTO 28010KT 250V320 10SM CLR M01/M10 A3010 RMK AO2 SLP213
                 T10061100 FZRANO $ =
2018-12-10 09:56 METAR KLCI 101456Z AUTO 31010KT 10SM FEW038 M02/M10 A3011 RMK AO2 SLP215
                 T10171100 51015 FZRANO $ =
2018-12-10 08:56 METAR KLCI 101356Z AUTO 29007KT 10SM OVC038 M01/M09 A3010 RMK AO2 SLP211
                 T10111089 FZRANO $ =
2018-12-10 07:56 METAR KLCI 101256Z AUTO 28005KT 10SM FEW036 M03/M07 A3008 RMK AO2 SLP206
                 T10281072 FZRANO $ =
2018-12-10 06:56 METAR KLCI 101156Z AUTO 33007KT 10SM FEW041 M05/M08 A3007 RMK AO2 SLP200
                 T10501078 11039 21072 53009 FZRANO $ =
2018-12-10 05:56 METAR KLCI 101056Z AUTO 00000KT 10SM SCT045 M05/M07 A3005 RMK AO2 SLP195
                 T10501072 FZRANO $ =
2018-12-10 04:56 METAR KLCI 100956Z AUTO 24007KT 10SM OVC041 M06/M07 A3004 RMK AO2 SLP192
                 T10561067 FZRANO $ =
2018-12-10 03:56 METAR KLCI 100856Z AUTO 00000KT 10SM SCT045 M07/M08 A3004 RMK AO2 SLP190
                 T10671083 58006 FZRANO $ =
2018-12-10 02:56 METAR KLCI 100756Z AUTO 26004KT 10SM OVC043 M06/M08 A3005 RMK AO2 SLP197
                 T10611078 FZRANO $ =
2018-12-10 01:56 METAR KLCI 100656Z AUTO 26004KT 10SM BKN047 M06/M09 A3005 RMK AO2 SLP194
                 T10611089 FZRANO $ =
2018-12-10 00:56 METAR KLCI 100556Z AUTO 25004KT 10SM BKN043 M04/M08 A3006 RMK AO2 SLP197
                 T10441083 11028 21072 58006 FZRANO $ =
2018-12-09 23:56 METAR KLCI 100456Z AUTO 24005KT 10SM CLR M06/M09 A3007 RMK AO2 SLP202 T10561089
                 FZRANO $ =
2018-12-09 22:56 METAR KLCI 100356Z AUTO VRB03KT 10SM CLR M05/M09 A3007 RMK AO2 SLP200 T10501089
                 400001117 FZRANO $ =
2018-12-09 21:56 METAR KLCI 100256Z AUTO 24005KT 10SM CLR M06/M08 A3007 RMK AO2 SLP205 T10611083
                 58011 FZRANO $ =

Support USWX by starting your Amazon purchase here.